| time (UTC) | temp F | wind direction | speed MPH | gust MPH | rain 1hr in | rain 24hr in | rain mn in | humidity % | barometer mb |
| 20260510010022 | 56 | 27 | 0.0 | 0.0 | 0.00 | 0.00 | 0.00 | 79 | 1008.5 |
| 20260510004522 | 57 | 27 | 0.0 | 0.0 | 0.00 | 0.00 | 0.00 | 80 | 1008.4 |
| 20260510003021 | 58 | 27 | 0.0 | 0.0 | 0.00 | 0.00 | 0.00 | 80 | 1008.3 |
| 20260510001521 | 59 | 27 | 0.0 | 0.0 | 0.00 | 0.00 | 0.00 | 78 | 1008.0 |
| 20260510000021 | 61 | 27 | 0.0 | 0.0 | 0.00 | 0.00 | 0.00 | 76 | 1007.9 |
| 20260509234535 | 62 | 27 | 0.0 | 1.0 | 0.00 | 0.00 | 0.00 | 73 | 1007.8 |
| 20260509233019 | 64 | 238 | 0.0 | 1.0 | 0.00 | 0.00 | 0.00 | 71 | 1007.8 |
| 20260509231519 | 64 | 226 | 0.0 | 2.0 | 0.00 | 0.00 | 0.00 | 68 | 1007.7 |
| 20260509230018 | 65 | 85 | 0.0 | 2.0 | 0.00 | 0.00 | 0.00 | 66 | 1007.7 |
| 20260509224528 | 65 | 89 | 0.0 | 4.0 | 0.00 | 0.00 | 0.00 | 68 | 1007.9 |
| 20260509223016 | 65 | 275 | 0.0 | 0.0 | 0.00 | 0.00 | 0.00 | 68 | 1008.0 |
| 20260509221515 | 65 | 276 | 0.0 | 2.0 | 0.00 | 0.00 | 0.00 | 64 | 1007.9 |
| 20260509220015 | 65 | 283 | 0.0 | 1.0 | 0.00 | 0.00 | 0.00 | 66 | 1008.0 |
| 20260509214513 | 64 | 104 | 0.0 | 2.0 | 0.00 | 0.00 | 0.00 | 65 | 1008.0 |
| 20260509213011 | 64 | 95 | 2.0 | 4.0 | 0.00 | 0.00 | 0.00 | 65 | 1008.1 |
| 20260509211510 | 65 | 201 | 0.0 | 2.0 | 0.00 | 0.00 | 0.00 | 66 | 1008.4 |
| 20260509210010 | 64 | 68 | 0.0 | 3.0 | 0.00 | 0.00 | 0.00 | 66 | 1008.5 |
| 20260509204510 | 64 | 19 | 0.0 | 2.0 | 0.00 | 0.00 | 0.00 | 68 | 1008.6 |
| 20260509203011 | 64 | 269 | 0.0 | 2.0 | 0.00 | 0.00 | 0.00 | 64 | 1008.3 |
| 20260509201509 | 65 | 270 | 0.0 | 2.0 | 0.00 | 0.00 | 0.00 | 64 | 1008.3 |
| 20260509200007 | 65 | 246 | 0.0 | 1.0 | 0.00 | 0.00 | 0.00 | 65 | 1008.5 |
| 20260509194505 | 65 | 260 | 1.0 | 2.0 | 0.00 | 0.00 | 0.00 | 64 | 1008.5 |
| 20260509193007 | 66 | 219 | 1.0 | 2.0 | 0.00 | 0.00 | 0.00 | 68 | 1008.7 |
| 20260509191601 | 64 | 288 | 0.0 | 4.0 | 0.00 | 0.00 | 0.00 | 69 | 1009.0 |
| 20260509190100 | 65 | 274 | 2.0 | 3.0 | 0.00 | 0.00 | 0.00 | 68 | 1009.0 |
| 20260509184556 | 64 | 238 | 0.0 | 3.0 | 0.00 | 0.00 | 0.00 | 74 | 1009.2 |
| 20260509183054 | 62 | 281 | 2.0 | 7.0 | 0.00 | 0.00 | 0.00 | 75 | 1009.5 |
| 20260509181607 | 62 | 212 | 1.0 | 4.0 | 0.00 | 0.00 | 0.00 | 77 | 1009.8 |
| 20260509180110 | 60 | 256 | 1.0 | 4.0 | 0.00 | 0.00 | 0.00 | 80 | 1010.0 |
| 20260509174545 | 59 | 278 | 1.0 | 4.0 | 0.00 | 0.00 | 0.00 | 81 | 1010.3 |
| 20260509173054 | 58 | 231 | 1.0 | 4.0 | 0.00 | 0.00 | 0.00 | 81 | 1010.0 |
| 20260509171551 | 58 | 283 | 0.0 | 2.0 | 0.00 | 0.00 | 0.00 | 81 | 1010.2 |
| 20260509170050 | 58 | 285 | 0.0 | 1.0 | 0.00 | 0.00 | 0.00 | 81 | 1010.2 |
| 20260509164543 | 58 | 253 | 0.0 | 3.0 | 0.00 | 0.00 | 0.00 | 81 | 1010.2 |
| 20260509163043 | 57 | 270 | 2.0 | 5.0 | 0.00 | 0.00 | 0.00 | 81 | 1010.5 |
| 20260509161550 | 58 | 297 | 0.0 | 6.0 | 0.00 | 0.00 | 0.00 | 81 | 1010.8 |
| 20260509160041 | 58 | 223 | 1.0 | 4.0 | 0.00 | 0.00 | 0.00 | 79 | 1010.6 |
| 20260509154541 | 57 | 200 | 0.0 | 4.0 | 0.00 | 0.00 | 0.00 | 63 | 1010.5 |
| 20260509153040 | 56 | 15 | 0.0 | 1.0 | 0.00 | 0.00 | 0.00 | 60 | 1010.2 |
| 20260509151539 | 56 | 277 | 0.0 | 0.0 | 0.00 | 0.00 | 0.00 | 72 | 1010.5 |
| 20260509150036 | 56 | 276 | 0.0 | 0.0 | 0.00 | 0.00 | 0.00 | 81 | 1010.9 |
| 20260509144536 | 57 | 276 | 0.0 | 0.0 | 0.00 | 0.00 | 0.00 | 80 | 1010.8 |
| 20260509143040 | 58 | 276 | 0.0 | 0.0 | 0.00 | 0.00 | 0.00 | 80 | 1011.0 |
| 20260509141542 | 58 | 276 | 0.0 | 0.0 | 0.00 | 0.00 | 0.00 | 77 | 1011.0 |
| 20260509140033 | 58 | 276 | 0.0 | 2.0 | 0.00 | 0.00 | 0.00 | 76 | 1010.7 |
| 20260509134533 | 58 | 60 | 0.0 | 3.0 | 0.00 | 0.00 | 0.00 | 73 | 1010.4 |
| 20260509133028 | 56 | 58 | 0.0 | 2.0 | 0.00 | 0.00 | 0.00 | 77 | 1010.5 |
| 20260509131529 | 56 | 204 | 0.0 | 1.0 | 0.00 | 0.00 | 0.00 | 80 | 1010.5 |
| 20260509130026 | 55 | 201 | 0.0 | 1.0 | 0.00 | 0.00 | 0.00 | 77 | 1010.1 |
| 20260509124524 | 55 | 203 | 0.0 | 1.0 | 0.00 | 0.00 | 0.00 | 81 | 1010.3 |
| 20260509123022 | 55 | 203 | 0.0 | 0.0 | 0.00 | 0.00 | 0.00 | 81 | 1010.3 |
| 20260509121522 | 54 | 203 | 0.0 | 1.0 | 0.00 | 0.00 | 0.00 | 81 | 1010.3 |
| 20260509120023 | 54 | 203 | 0.0 | 1.0 | 0.00 | 0.00 | 0.00 | 80 | 1010.2 |
| 20260509114517 | 53 | 195 | 0.0 | 1.0 | 0.00 | 0.00 | 0.00 | 76 | 1010.0 |
| 20260509113017 | 52 | 139 | 0.0 | 1.0 | 0.00 | 0.00 | 0.00 | 71 | 1009.7 |
| 20260509111516 | 52 | 201 | 0.0 | 0.0 | 0.00 | 0.00 | 0.00 | 70 | 1009.7 |
| 20260509110016 | 52 | 201 | 0.0 | 0.0 | 0.00 | 0.00 | 0.00 | 69 | 1009.8 |
| 20260509104515 | 52 | 165 | 0.0 | 0.0 | 0.00 | 0.00 | 0.00 | 69 | 1009.6 |
| 20260509103013 | 51 | 165 | 0.0 | 0.0 | 0.00 | 0.00 | 0.00 | 71 | 1009.6 |
| 20260509101523 | 51 | 165 | 0.0 | 0.0 | 0.00 | 0.00 | 0.00 | 72 | 1009.5 |
| 20260509100012 | 51 | 165 | 0.0 | 0.0 | 0.00 | 0.00 | 0.00 | 73 | 1009.4 |
| 20260509094510 | 51 | 165 | 0.0 | 0.0 | 0.00 | 0.00 | 0.00 | 73 | 1009.4 |
| 20260509093010 | 51 | 165 | 0.0 | 0.0 | 0.00 | 0.00 | 0.00 | 77 | 1009.6 |
| 20260509091508 | 51 | 165 | 0.0 | 0.0 | 0.00 | 0.00 | 0.00 | 78 | 1009.6 |
| 20260509090006 | 51 | 165 | 0.0 | 0.0 | 0.00 | 0.00 | 0.00 | 78 | 1009.7 |
| 20260509084506 | 51 | 165 | 0.0 | 0.0 | 0.00 | 0.00 | 0.00 | 76 | 1009.9 |
| 20260509083006 | 51 | 165 | 0.0 | 0.0 | 0.00 | 0.00 | 0.00 | 76 | 1009.9 |
| 20260509081508 | 51 | 165 | 0.0 | 0.0 | 0.00 | 0.00 | 0.00 | 77 | 1009.9 |
| 20260509080002 | 51 | 165 | 0.0 | 0.0 | 0.00 | 0.00 | 0.00 | 78 | 1010.2 |
| 20260509074502 | 51 | 165 | 0.0 | 0.0 | 0.00 | 0.00 | 0.00 | 79 | 1010.0 |
| 20260509073100 | 51 | 165 | 0.0 | 0.0 | 0.00 | 0.00 | 0.00 | 81 | 1009.9 |
| 20260509071601 | 51 | 165 | 0.0 | 0.0 | 0.00 | 0.00 | 0.00 | 81 | 1010.1 |
| 20260509070105 | 51 | 165 | 0.0 | 0.0 | 0.00 | 0.00 | 0.00 | 80 | 1010.1 |
| 20260509064601 | 51 | 165 | 0.0 | 0.0 | 0.00 | 0.00 | 0.00 | 81 | 1010.2 |
| 20260509063110 | 51 | 165 | 0.0 | 0.0 | 0.00 | 0.00 | 0.00 | 81 | 1010.2 |
| 20260509061614 | 52 | 165 | 0.0 | 0.0 | 0.00 | 0.00 | 0.00 | 80 | 1010.3 |
| 20260509060059 | 52 | 165 | 0.0 | 0.0 | 0.00 | 0.00 | 0.00 | 81 | 1010.0 |
| 20260509054550 | 52 | 165 | 0.0 | 0.0 | 0.00 | 0.00 | 0.00 | 81 | 1010.2 |
| 20260509053048 | 52 | 165 | 0.0 | 0.0 | 0.00 | 0.00 | 0.00 | 81 | 1010.4 |
| 20260509051545 | 52 | 165 | 0.0 | 0.0 | 0.00 | 0.00 | 0.00 | 81 | 1010.8 |
| 20260509050046 | 52 | 233 | 0.0 | 0.0 | 0.00 | 0.00 | 0.00 | 81 | 1010.8 |
| 20260509044544 | 52 | 233 | 0.0 | 0.0 | 0.00 | 0.00 | 0.00 | 81 | 1010.9 |
| 20260509043042 | 52 | 233 | 0.0 | 0.0 | 0.00 | 0.00 | 0.00 | 79 | 1010.9 |
| 20260509041539 | 53 | 233 | 0.0 | 0.0 | 0.00 | 0.00 | 0.00 | 78 | 1010.8 |
| 20260509040035 | 54 | 233 | 0.0 | 0.0 | 0.00 | 0.00 | 0.00 | 78 | 1011.0 |
| 20260509034537 | 54 | 233 | 0.0 | 0.0 | 0.00 | 0.00 | 0.00 | 76 | 1011.1 |
| 20260509033035 | 55 | 233 | 0.0 | 1.0 | 0.00 | 0.00 | 0.00 | 74 | 1011.2 |
| 20260509031536 | 56 | 108 | 0.0 | 0.0 | 0.00 | 0.00 | 0.00 | 75 | 1011.3 |
| 20260509030038 | 56 | 108 | 0.0 | 1.0 | 0.00 | 0.00 | 0.00 | 72 | 1011.0 |
| 20260509024537 | 57 | 233 | 0.0 | 1.0 | 0.00 | 0.00 | 0.00 | 74 | 1011.3 |
| 20260509023032 | 57 | 229 | 0.0 | 0.0 | 0.00 | 0.00 | 0.00 | 70 | 1011.0 |
| 20260509021532 | 58 | 229 | 0.0 | 2.0 | 0.00 | 0.00 | 0.00 | 68 | 1011.3 |
| 20260509020046 | 58 | 231 | 0.0 | 2.0 | 0.00 | 0.00 | 0.00 | 65 | 1011.5 |
| 20260509014543 | 58 | 163 | 0.0 | 3.0 | 0.00 | 0.00 | 0.00 | 61 | 1011.3 |
| 20260509013037 | 58 | 40 | 0.0 | 0.0 | 0.00 | 0.00 | 0.00 | 63 | 1011.1 |
| 20260509011530 | 58 | 40 | 1.0 | 1.0 | 0.00 | 0.00 | 0.00 | 60 | 1010.9 |